M/V Yutaka — DSOU3 — position and weather

sailwx.info

Track history (hours):
 
Tides and Currents Weather Stations Pressure Air Temp Water Temp Dewpoint Dewpoint Depression Visibility Wind Speed Wind Dir Waves Ship Positions

M/V Yutaka

Last reported at 2018-Apr-12 15:25 UTC. Time now 2018-Apr-23 13:38 UTC.
Position N 35°05' E 140°24'.
Warning: this ship's position is 10 days out of date.

Length 73 m; draft 3.3 m.

Type: Cargo ship. MMSI: 440341000.

Date/timePositionNaut miles runAvg speedWind from/ knotsBaromVisibWave heightAir tempDewpointWater temp
2018-Apr-12 15:25N 35°05' E 140°24'5 9.0
2018-Apr-12 14:49N 35°02' E 140°18'4 9.0
2018-Apr-12 14:24N 34°60' E 140°14'4 9.4
2018-Apr-12 13:56N 34°58' E 140°09'4 9.1
2018-Apr-12 13:28N 34°56' E 140°05'16 9.7
2018-Apr-12 11:51N 34°48' E 139°48'4 9.0
2018-Apr-12 11:24N 34°46' E 139°44'810.1
2018-Apr-12 10:37N 34°42' E 139°35'211.8
2018-Apr-12 10:28N 34°41' E 139°34'612.2
2018-Apr-12 10:00N 34°39' E 139°27'811.3
2018-Apr-12 09:19N 34°38' E 139°18'411.3
2018-Apr-12 09:00N 34°37' E 139°14'611.4
2018-Apr-12 08:30N 34°35' E 139°07'611.4
2018-Apr-12 08:00N 34°34' E 139°00'611.2
2018-Apr-12 07:30N 34°33' E 138°54'510.2
2018-Apr-12 07:00N 34°33' E 138°48'610.2
2018-Apr-12 06:26N 34°32' E 138°41'410.0
2018-Apr-12 06:00N 34°31' E 138°36'5 9.7
2018-Apr-12 05:30N 34°30' E 138°30'176 7.4
2018-Apr-11 05:41N 33°53' E 135°02'1 6.7
2018-Apr-11 05:30N 33°54' E 135°02'3 6.8
2018-Apr-11 05:00N 33°57' E 134°60'4 7.2
2018-Apr-11 04:30N 33°60' E 134°57'3 7.1
2018-Apr-11 04:00N 34°02' E 134°53'3 6.5
2018-Apr-11 03:30N 34°04' E 134°50'3 6.9
2018-Apr-11 03:00N 34°07' E 134°48'4 7.7
2018-Apr-11 02:30N 34°09' E 134°44'4 8.4
2018-Apr-11 01:59N 34°12' E 134°41'5 9.3
2018-Apr-11 01:30N 34°16' E 134°38'5 9.2
2018-Apr-11 01:00N 34°18' E 134°33'5 9.5
2018-Apr-11 00:30N 34°19' E 134°27'4 8.9
2018-Apr-11 00:01N 34°21' E 134°22'1 1.2
2018-Apr-10 23:30N 34°21' E 134°22'0 0.9
2018-Apr-10 23:00N 34°21' E 134°21'5 9.0
2018-Apr-10 22:29N 34°23' E 134°16'77 7.6
2018-Apr-10 12:15N 34°01' E 132°46'2 6.3
2018-Apr-10 12:00N 33°60' E 132°45'4 8.9
2018-Apr-10 11:30N 33°57' E 132°42'5 9.1
2018-Apr-10 10:56N 33°54' E 132°36'11 9.2
2018-Apr-10 09:44N 33°50' E 132°24'4 9.7
2018-Apr-10 09:18N 33°50' E 132°18'5 9.4
2018-Apr-10 08:46N 33°50' E 132°12'3 9.4
2018-Apr-10 08:28N 33°49' E 132°09'4 9.4
2018-Apr-10 08:00N 33°46' E 132°05'11 9.1
2018-Apr-10 06:51N 33°46' E 131°52'3 9.2
2018-Apr-10 06:30N 33°45' E 131°48'5 9.0
2018-Apr-10 06:00N 33°46' E 131°43'4 8.9
2018-Apr-10 05:30N 33°47' E 131°38'4 8.7
2018-Apr-10 05:00N 33°47' E 131°33'4 8.6
2018-Apr-10 04:30N 33°48' E 131°27'4 8.7
2018-Apr-10 04:00N 33°49' E 131°22'4 8.8
2018-Apr-10 03:31N 33°50' E 131°17'4 8.8
2018-Apr-10 03:00N 33°51' E 131°12'4 8.9
2018-Apr-10 02:30N 33°54' E 131°08'5 9.1
2018-Apr-10 02:00N 33°56' E 131°03'4 8.1
2018-Apr-10 01:30N 33°58' E 130°59'4 8.6
2018-Apr-10 01:00N 33°55' E 130°56'3 6.2
2018-Apr-10 00:30N 33°56' E 130°52'4 8.0
2018-Apr-10 00:00N 33°60' E 130°50'4 8.6
2018-Apr-09 23:30N 34°03' E 130°48'4 8.4
2018-Apr-09 23:00N 34°07' E 130°45'4 8.3
2018-Apr-09 22:30N 34°10' E 130°41'4 8.3
2018-Apr-09 22:00N 34°13' E 130°38'4 7.5
2018-Apr-09 21:30N 34°16' E 130°35'4 7.8
2018-Apr-09 21:00N 34°19' E 130°32'4 7.9
2018-Apr-09 20:27N 34°23' E 130°30'30 8.0
2018-Apr-09 16:42N 34°46' E 130°07'2 6.4
2018-Apr-09 16:22N 34°48' E 130°05'1 0.4
2018-Apr-09 14:42N 34°47' E 130°04'0 0.4
2018-Apr-09 14:28N 34°47' E 130°04'47 2.3
2018-Apr-08 18:05N 35°05' E 129°10'1 8.6
2018-Apr-08 17:59N 35°04' E 129°10'3 5.2
2018-Apr-08 17:30N 35°05' E 129°07'3 6.4
2018-Apr-08 17:00N 35°07' E 129°04'0 0.0
2018-Apr-08 16:28N 35°07' E 129°04'0 0.0
2018-Apr-08 15:58N 35°07' E 129°04'0 0.0
2018-Apr-08 15:28N 35°07' E 129°04'0 0.0
2018-Apr-08 14:58N 35°07' E 129°04'0 0.0
2018-Apr-08 14:28N 35°07' E 129°04'0 0.0
2018-Apr-08 13:58N 35°07' E 129°04'0 0.0
2018-Apr-08 13:28N 35°07' E 129°04'0 0.0
2018-Apr-08 12:58N 35°07' E 129°04'0 0.0
2018-Apr-08 12:28N 35°07' E 129°04'0 0.0
2018-Apr-08 11:58N 35°07' E 129°04'0 0.0
2018-Apr-08 11:28N 35°07' E 129°04'0 0.0
2018-Apr-08 10:58N 35°07' E 129°04'0 0.0
2018-Apr-08 10:28N 35°07' E 129°04'0 0.0
2018-Apr-08 09:59N 35°07' E 129°04'0 0.0
2018-Apr-08 09:28N 35°07' E 129°04'0 0.0
2018-Apr-08 08:58N 35°07' E 129°04'0 0.0
2018-Apr-08 08:28N 35°07' E 129°04'0 0.0
2018-Apr-08 07:58N 35°07' E 129°04'0 0.0
2018-Apr-08 07:28N 35°07' E 129°04'0 0.0
2018-Apr-08 06:58N 35°07' E 129°04'0 0.0
2018-Apr-08 06:28N 35°07' E 129°04'0 0.0
2018-Apr-08 05:58N 35°07' E 129°04'0 0.0
2018-Apr-08 05:28N 35°07' E 129°04'0 0.0
2018-Apr-08 04:58N 35°07' E 129°04'0 0.0
2018-Apr-08 04:28N 35°07' E 129°04'0 0.0
2018-Apr-08 03:58N 35°07' E 129°04'0 0.0
2018-Apr-08 03:28N 35°07' E 129°04'0 0.0
2018-Apr-08 02:58N 35°07' E 129°04'0 0.0
2018-Apr-08 02:29N 35°07' E 129°04'0 0.0
2018-Apr-08 01:58N 35°07' E 129°04'0 0.0
2018-Apr-08 01:28N 35°07' E 129°04'0 0.0
2018-Apr-08 00:58N 35°07' E 129°04'0 0.0
2018-Apr-08 00:28N 35°07' E 129°04'0 0.0
2018-Apr-07 23:58N 35°07' E 129°04'0 0.0
2018-Apr-07 23:28N 35°07' E 129°04'0 0.0
2018-Apr-07 22:58N 35°07' E 129°04'0 0.0
2018-Apr-07 22:28N 35°07' E 129°04'0 0.0
2018-Apr-07 21:55N 35°07' E 129°04'0 0.0
2018-Apr-07 21:25N 35°07' E 129°04'0 0.0
2018-Apr-07 20:58N 35°07' E 129°04'0 0.0
2018-Apr-07 20:28N 35°07' E 129°04'0 0.0
2018-Apr-07 19:55N 35°07' E 129°04'0 0.0
2018-Apr-07 19:28N 35°07' E 129°04'0 0.0
2018-Apr-07 18:58N 35°07' E 129°04'0 0.0
2018-Apr-07 18:28N 35°07' E 129°04'0 0.0
2018-Apr-07 17:58N 35°07' E 129°04'0 0.0
2018-Apr-07 17:28N 35°07' E 129°04'0 0.0
2018-Apr-07 16:59N 35°07' E 129°04'0 0.0
2018-Apr-07 16:28N 35°07' E 129°04'0 0.0
2018-Apr-07 15:58N 35°07' E 129°04'0 0.0
2018-Apr-07 15:28N 35°07' E 129°04'0 0.1
2018-Apr-07 15:00N 35°07' E 129°04'1 2.3
2018-Apr-07 14:30N 35°06' E 129°05'4 7.8
2018-Apr-07 14:00N 35°04' E 129°09'74 4.9
2018-Apr-06 23:02N 34°11' E 130°11'0 6.0
2018-Apr-06 23:00N 34°11' E 130°11'2 4.2
2018-Apr-06 22:30N 34°10' E 130°13'2 4.2
2018-Apr-06 21:58N 34°10' E 130°16'2 4.2
2018-Apr-06 21:30N 34°09' E 130°18'2 4.0
2018-Apr-06 21:00N 34°09' E 130°21'2 4.2
2018-Apr-06 20:30N 34°08' E 130°23'2 4.2
2018-Apr-06 20:00N 34°08' E 130°26'2 4.4
2018-Apr-06 19:30N 34°07' E 130°28'2 4.2
2018-Apr-06 19:00N 34°07' E 130°31'2 4.2
2018-Apr-06 18:30N 34°06' E 130°33'2 4.3
2018-Apr-06 18:00N 34°06' E 130°36'2 4.3
2018-Apr-06 17:30N 34°05' E 130°38'2 4.3
2018-Apr-06 17:00N 34°05' E 130°41'2 4.4
2018-Apr-06 16:30N 34°05' E 130°43'2 4.9
2018-Apr-06 16:00N 34°04' E 130°46'3 5.1
2018-Apr-06 15:30N 34°02' E 130°49'3 5.6
2018-Apr-06 15:00N 34°01' E 130°52'3 6.7
2018-Apr-06 14:30N 33°58' E 130°53'3 6.6
2018-Apr-06 14:00N 33°55' E 130°54'3 5.9
2018-Apr-06 13:30N 33°57' E 130°57'3 5.8
2018-Apr-06 13:00N 33°59' E 130°59'3 6.6
2018-Apr-06 12:30N 33°57' E 131°03'4 8.3
2018-Apr-06 12:00N 33°55' E 131°07'4 7.6
2018-Apr-06 11:30N 33°53' E 131°11'4 7.4
2018-Apr-06 11:00N 33°51' E 131°15'3 6.8
2018-Apr-06 10:30N 33°50' E 131°19'4 7.9
2018-Apr-06 10:00N 33°50' E 131°23'4 8.1
2018-Apr-06 09:30N 33°49' E 131°28'4 8.0
2018-Apr-06 09:00N 33°48' E 131°33'4 7.6
2018-Apr-06 08:30N 33°47' E 131°37'4 7.3
2018-Apr-06 08:00N 33°46' E 131°42'3 6.6
2018-Apr-06 07:29N 33°46' E 131°46'3 5.9
2018-Apr-06 07:00N 33°44' E 131°48'3 6.5
2018-Apr-06 06:30N 33°41' E 131°50'3 6.3
2018-Apr-06 05:58N 33°38' E 131°53'3 6.5
2018-Apr-06 05:28N 33°36' E 131°55'4 1.2
2018-Apr-06 02:31N 33°33' E 131°58'0 1.4
2018-Apr-06 02:28N 33°33' E 131°58'1 1.6
2018-Apr-06 02:00N 33°32' E 131°58'1 1.7
2018-Apr-06 01:28N 33°31' E 131°58'1 1.8
2018-Apr-06 01:00N 33°30' E 131°57'2 3.3
2018-Apr-06 00:30N 33°29' E 131°57'4 7.0
2018-Apr-05 23:58N 33°25' E 131°57'3 6.8
2018-Apr-05 23:30N 33°22' E 131°57'4 6.9
2018-Apr-05 22:59N 33°19' E 131°59'3 5.3
2018-Apr-05 22:23N 33°16' E 132°02'2 5.8
2018-Apr-05 22:00N 33°14' E 132°03'5 7.8
2018-Apr-05 21:25N 33°11' E 132°07'312 7.1
2018-Apr-04 01:23N 34°28' E 138°11'12 6.9
2018-Apr-03 23:35N 34°30' E 138°25'1 7.1
2018-Apr-03 23:30N 34°30' E 138°26'4 7.6
2018-Apr-03 22:54N 34°31' E 138°32'16 7.0
2018-Apr-03 20:36N 34°32' E 138°51'1 6.1
2018-Apr-03 20:30N 34°32' E 138°52'5 6.5
2018-Apr-03 19:49N 34°33' E 138°57'5 6.6
2018-Apr-03 19:07N 34°35' E 139°02'3 6.9
2018-Apr-03 18:46N 34°37' E 139°03'2 7.0
2018-Apr-03 18:30N 34°39' E 139°05'26 5.6
2018-Apr-03 13:46N 34°56' E 139°29'1 5.5
2018-Apr-03 13:29N 34°57' E 139°31'3 5.9
2018-Apr-03 13:00N 34°59' E 139°33'3 6.8
2018-Apr-03 12:30N 35°02' E 139°36'4 7.2
2018-Apr-03 12:01N 35°04' E 139°39'4 7.8
2018-Apr-03 11:30N 35°07' E 139°42'4 7.7
2018-Apr-03 11:00N 35°10' E 139°45'4 7.9
2018-Apr-03 10:30N 35°14' E 139°46'4 7.9
2018-Apr-03 09:59N 35°18' E 139°44'4 7.9
2018-Apr-03 09:30N 35°21' E 139°43'4 7.6
2018-Apr-03 09:00N 35°25' E 139°44'4 7.1
2018-Apr-03 08:31N 35°24' E 139°48'4 8.5
2018-Apr-03 08:00N 35°22' E 139°52'1 1.6
2018-Apr-03 07:30N 35°22' E 139°53'0 0.0
2018-Apr-03 06:59N 35°22' E 139°53'0 0.0
2018-Apr-03 06:20N 35°22' E 139°53'0 0.0
2018-Apr-03 05:59N 35°22' E 139°53'0 0.0
2018-Apr-03 05:16N 35°22' E 139°53'0 0.0
2018-Apr-03 04:56N 35°22' E 139°53'0 0.0
2018-Apr-03 04:25N 35°22' E 139°53'0 0.0
2018-Apr-03 03:49N 35°22' E 139°53'0 0.0
2018-Apr-03 03:23N 35°22' E 139°53'0 0.0
2018-Apr-03 02:59N 35°22' E 139°53'0 0.0
2018-Apr-03 02:25N 35°22' E 139°53'0 0.0
2018-Apr-03 01:58N 35°22' E 139°53'0 0.0
2018-Apr-03 01:26N 35°22' E 139°53'0 0.0
2018-Apr-03 00:58N 35°22' E 139°53'0 0.0
2018-Apr-03 00:28N 35°22' E 139°53'0 0.0
2018-Apr-02 23:58N 35°22' E 139°53'0 0.0
2018-Apr-02 23:22N 35°22' E 139°53'0 0.0
2018-Apr-02 22:56N 35°22' E 139°53'0 0.0
2018-Apr-02 22:29N 35°22' E 139°53'0 0.0
2018-Apr-02 21:53N 35°22' E 139°53'0 0.0
2018-Apr-02 21:29N 35°22' E 139°53'0 0.0
2018-Apr-02 20:59N 35°22' E 139°53'0 0.0
2018-Apr-02 20:28N 35°22' E 139°53'0 0.0
2018-Apr-02 19:58N 35°22' E 139°53'0 0.0
2018-Apr-02 19:28N 35°22' E 139°53'0 0.0
2018-Apr-02 18:59N 35°22' E 139°53'0 0.0
2018-Apr-02 18:22N 35°22' E 139°53'0 0.0
2018-Apr-02 17:55N 35°22' E 139°53'0 0.0
2018-Apr-02 17:26N 35°22' E 139°53'0 0.0
2018-Apr-02 16:56N 35°22' E 139°53'0 0.0
2018-Apr-02 16:29N 35°22' E 139°53'0 0.0
2018-Apr-02 15:55N 35°22' E 139°53'0 0.0
2018-Apr-02 15:26N 35°22' E 139°53'  
Track history (hours):
 
Tides and Currents Weather Stations Pressure Air Temp Water Temp Dewpoint Dewpoint Depression Visibility Wind Speed Wind Dir Waves Ship Positions

M/V Yutaka

Last reported at 2018-Apr-12 15:25 UTC. Time now 2018-Apr-23 13:38 UTC.
Position N 35°05' E 140°24'.
Warning: this ship's position is 10 days out of date.

Length 73 m; draft 3.3 m.

Type: Cargo ship. MMSI: 440341000.

Date/timePositionNaut miles runAvg speedWind from/ knotsBaromVisibWave heightAir tempDewpointWater temp
2018-Apr-12 15:25N 35°05' E 140°24'5 9.0
2018-Apr-12 14:49N 35°02' E 140°18'4 9.0
2018-Apr-12 14:24N 34°60' E 140°14'4 9.4
2018-Apr-12 13:56N 34°58' E 140°09'4 9.1
2018-Apr-12 13:28N 34°56' E 140°05'16 9.7
2018-Apr-12 11:51N 34°48' E 139°48'4 9.0
2018-Apr-12 11:24N 34°46' E 139°44'810.1
2018-Apr-12 10:37N 34°42' E 139°35'211.8
2018-Apr-12 10:28N 34°41' E 139°34'612.2
2018-Apr-12 10:00N 34°39' E 139°27'811.3
2018-Apr-12 09:19N 34°38' E 139°18'411.3
2018-Apr-12 09:00N 34°37' E 139°14'611.4
2018-Apr-12 08:30N 34°35' E 139°07'611.4
2018-Apr-12 08:00N 34°34' E 139°00'611.2
2018-Apr-12 07:30N 34°33' E 138°54'510.2
2018-Apr-12 07:00N 34°33' E 138°48'610.2
2018-Apr-12 06:26N 34°32' E 138°41'410.0
2018-Apr-12 06:00N 34°31' E 138°36'5 9.7
2018-Apr-12 05:30N 34°30' E 138°30'176 7.4
2018-Apr-11 05:41N 33°53' E 135°02'1 6.7
2018-Apr-11 05:30N 33°54' E 135°02'3 6.8
2018-Apr-11 05:00N 33°57' E 134°60'4 7.2
2018-Apr-11 04:30N 33°60' E 134°57'3 7.1
2018-Apr-11 04:00N 34°02' E 134°53'3 6.5
2018-Apr-11 03:30N 34°04' E 134°50'3 6.9
2018-Apr-11 03:00N 34°07' E 134°48'4 7.7
2018-Apr-11 02:30N 34°09' E 134°44'4 8.4
2018-Apr-11 01:59N 34°12' E 134°41'5 9.3
2018-Apr-11 01:30N 34°16' E 134°38'5 9.2
2018-Apr-11 01:00N 34°18' E 134°33'5 9.5
2018-Apr-11 00:30N 34°19' E 134°27'4 8.9
2018-Apr-11 00:01N 34°21' E 134°22'1 1.2
2018-Apr-10 23:30N 34°21' E 134°22'0 0.9
2018-Apr-10 23:00N 34°21' E 134°21'5 9.0
2018-Apr-10 22:29N 34°23' E 134°16'77 7.6
2018-Apr-10 12:15N 34°01' E 132°46'2 6.3
2018-Apr-10 12:00N 33°60' E 132°45'4 8.9
2018-Apr-10 11:30N 33°57' E 132°42'5 9.1
2018-Apr-10 10:56N 33°54' E 132°36'11 9.2
2018-Apr-10 09:44N 33°50' E 132°24'4 9.7
2018-Apr-10 09:18N 33°50' E 132°18'5 9.4
2018-Apr-10 08:46N 33°50' E 132°12'3 9.4
2018-Apr-10 08:28N 33°49' E 132°09'4 9.4
2018-Apr-10 08:00N 33°46' E 132°05'11 9.1
2018-Apr-10 06:51N 33°46' E 131°52'3 9.2
2018-Apr-10 06:30N 33°45' E 131°48'5 9.0
2018-Apr-10 06:00N 33°46' E 131°43'4 8.9
2018-Apr-10 05:30N 33°47' E 131°38'4 8.7
2018-Apr-10 05:00N 33°47' E 131°33'4 8.6
2018-Apr-10 04:30N 33°48' E 131°27'4 8.7
2018-Apr-10 04:00N 33°49' E 131°22'4 8.8
2018-Apr-10 03:31N 33°50' E 131°17'4 8.8
2018-Apr-10 03:00N 33°51' E 131°12'4 8.9
2018-Apr-10 02:30N 33°54' E 131°08'5 9.1
2018-Apr-10 02:00N 33°56' E 131°03'4 8.1
2018-Apr-10 01:30N 33°58' E 130°59'4 8.6
2018-Apr-10 01:00N 33°55' E 130°56'3 6.2
2018-Apr-10 00:30N 33°56' E 130°52'4 8.0
2018-Apr-10 00:00N 33°60' E 130°50'4 8.6
2018-Apr-09 23:30N 34°03' E 130°48'4 8.4
2018-Apr-09 23:00N 34°07' E 130°45'4 8.3
2018-Apr-09 22:30N 34°10' E 130°41'4 8.3
2018-Apr-09 22:00N 34°13' E 130°38'4 7.5
2018-Apr-09 21:30N 34°16' E 130°35'4 7.8
2018-Apr-09 21:00N 34°19' E 130°32'4 7.9
2018-Apr-09 20:27N 34°23' E 130°30'30 8.0
2018-Apr-09 16:42N 34°46' E 130°07'2 6.4
2018-Apr-09 16:22N 34°48' E 130°05'1 0.4
2018-Apr-09 14:42N 34°47' E 130°04'0 0.4
2018-Apr-09 14:28N 34°47' E 130°04'47 2.3
2018-Apr-08 18:05N 35°05' E 129°10'1 8.6
2018-Apr-08 17:59N 35°04' E 129°10'3 5.2
2018-Apr-08 17:30N 35°05' E 129°07'3 6.4
2018-Apr-08 17:00N 35°07' E 129°04'0 0.0
2018-Apr-08 16:28N 35°07' E 129°04'0 0.0
2018-Apr-08 15:58N 35°07' E 129°04'0 0.0
2018-Apr-08 15:28N 35°07' E 129°04'0 0.0
2018-Apr-08 14:58N 35°07' E 129°04'0 0.0
2018-Apr-08 14:28N 35°07' E 129°04'0 0.0
2018-Apr-08 13:58N 35°07' E 129°04'0 0.0
2018-Apr-08 13:28N 35°07' E 129°04'0 0.0
2018-Apr-08 12:58N 35°07' E 129°04'0 0.0
2018-Apr-08 12:28N 35°07' E 129°04'0 0.0
2018-Apr-08 11:58N 35°07' E 129°04'0 0.0
2018-Apr-08 11:28N 35°07' E 129°04'0 0.0
2018-Apr-08 10:58N 35°07' E 129°04'0 0.0
2018-Apr-08 10:28N 35°07' E 129°04'0 0.0
2018-Apr-08 09:59N 35°07' E 129°04'0 0.0
2018-Apr-08 09:28N 35°07' E 129°04'0 0.0
2018-Apr-08 08:58N 35°07' E 129°04'0 0.0
2018-Apr-08 08:28N 35°07' E 129°04'0 0.0
2018-Apr-08 07:58N 35°07' E 129°04'0 0.0
2018-Apr-08 07:28N 35°07' E 129°04'0 0.0
2018-Apr-08 06:58N 35°07' E 129°04'0 0.0
2018-Apr-08 06:28N 35°07' E 129°04'0 0.0
2018-Apr-08 05:58N 35°07' E 129°04'0 0.0
2018-Apr-08 05:28N 35°07' E 129°04'0 0.0
2018-Apr-08 04:58N 35°07' E 129°04'0 0.0
2018-Apr-08 04:28N 35°07' E 129°04'0 0.0
2018-Apr-08 03:58N 35°07' E 129°04'0 0.0
2018-Apr-08 03:28N 35°07' E 129°04'0 0.0
2018-Apr-08 02:58N 35°07' E 129°04'0 0.0
2018-Apr-08 02:29N 35°07' E 129°04'0 0.0
2018-Apr-08 01:58N 35°07' E 129°04'0 0.0
2018-Apr-08 01:28N 35°07' E 129°04'0 0.0
2018-Apr-08 00:58N 35°07' E 129°04'0 0.0
2018-Apr-08 00:28N 35°07' E 129°04'0 0.0
2018-Apr-07 23:58N 35°07' E 129°04'0 0.0
2018-Apr-07 23:28N 35°07' E 129°04'0 0.0
2018-Apr-07 22:58N 35°07' E 129°04'0 0.0
2018-Apr-07 22:28N 35°07' E 129°04'0 0.0
2018-Apr-07 21:55N 35°07' E 129°04'0 0.0
2018-Apr-07 21:25N 35°07' E 129°04'0 0.0
2018-Apr-07 20:58N 35°07' E 129°04'0 0.0
2018-Apr-07 20:28N 35°07' E 129°04'0 0.0
2018-Apr-07 19:55N 35°07' E 129°04'0 0.0
2018-Apr-07 19:28N 35°07' E 129°04'0 0.0
2018-Apr-07 18:58N 35°07' E 129°04'0 0.0
2018-Apr-07 18:28N 35°07' E 129°04'0 0.0
2018-Apr-07 17:58N 35°07' E 129°04'0 0.0
2018-Apr-07 17:28N 35°07' E 129°04'0 0.0
2018-Apr-07 16:59N 35°07' E 129°04'0 0.0
2018-Apr-07 16:28N 35°07' E 129°04'0 0.0
2018-Apr-07 15:58N 35°07' E 129°04'0 0.0
2018-Apr-07 15:28N 35°07' E 129°04'0 0.1
2018-Apr-07 15:00N 35°07' E 129°04'1 2.3
2018-Apr-07 14:30N 35°06' E 129°05'4 7.8
2018-Apr-07 14:00N 35°04' E 129°09'74 4.9
2018-Apr-06 23:02N 34°11' E 130°11'0 6.0
2018-Apr-06 23:00N 34°11' E 130°11'2 4.2
2018-Apr-06 22:30N 34°10' E 130°13'2 4.2
2018-Apr-06 21:58N 34°10' E 130°16'2 4.2
2018-Apr-06 21:30N 34°09' E 130°18'2 4.0
2018-Apr-06 21:00N 34°09' E 130°21'2 4.2
2018-Apr-06 20:30N 34°08' E 130°23'2 4.2
2018-Apr-06 20:00N 34°08' E 130°26'2 4.4
2018-Apr-06 19:30N 34°07' E 130°28'2 4.2
2018-Apr-06 19:00N 34°07' E 130°31'2 4.2
2018-Apr-06 18:30N 34°06' E 130°33'2 4.3
2018-Apr-06 18:00N 34°06' E 130°36'2 4.3
2018-Apr-06 17:30N 34°05' E 130°38'2 4.3
2018-Apr-06 17:00N 34°05' E 130°41'2 4.4
2018-Apr-06 16:30N 34°05' E 130°43'2 4.9
2018-Apr-06 16:00N 34°04' E 130°46'3 5.1
2018-Apr-06 15:30N 34°02' E 130°49'3 5.6
2018-Apr-06 15:00N 34°01' E 130°52'3 6.7
2018-Apr-06 14:30N 33°58' E 130°53'3 6.6
2018-Apr-06 14:00N 33°55' E 130°54'3 5.9
2018-Apr-06 13:30N 33°57' E 130°57'3 5.8
2018-Apr-06 13:00N 33°59' E 130°59'3 6.6
2018-Apr-06 12:30N 33°57' E 131°03'4 8.3
2018-Apr-06 12:00N 33°55' E 131°07'4 7.6
2018-Apr-06 11:30N 33°53' E 131°11'4 7.4
2018-Apr-06 11:00N 33°51' E 131°15'3 6.8
2018-Apr-06 10:30N 33°50' E 131°19'4 7.9
2018-Apr-06 10:00N 33°50' E 131°23'4 8.1
2018-Apr-06 09:30N 33°49' E 131°28'4 8.0
2018-Apr-06 09:00N 33°48' E 131°33'4 7.6
2018-Apr-06 08:30N 33°47' E 131°37'4 7.3
2018-Apr-06 08:00N 33°46' E 131°42'3 6.6
2018-Apr-06 07:29N 33°46' E 131°46'3 5.9
2018-Apr-06 07:00N 33°44' E 131°48'3 6.5
2018-Apr-06 06:30N 33°41' E 131°50'3 6.3
2018-Apr-06 05:58N 33°38' E 131°53'3 6.5
2018-Apr-06 05:28N 33°36' E 131°55'4 1.2
2018-Apr-06 02:31N 33°33' E 131°58'0 1.4
2018-Apr-06 02:28N 33°33' E 131°58'1 1.6
2018-Apr-06 02:00N 33°32' E 131°58'1 1.7
2018-Apr-06 01:28N 33°31' E 131°58'1 1.8
2018-Apr-06 01:00N 33°30' E 131°57'2 3.3
2018-Apr-06 00:30N 33°29' E 131°57'4 7.0
2018-Apr-05 23:58N 33°25' E 131°57'3 6.8
2018-Apr-05 23:30N 33°22' E 131°57'4 6.9
2018-Apr-05 22:59N 33°19' E 131°59'3 5.3
2018-Apr-05 22:23N 33°16' E 132°02'2 5.8
2018-Apr-05 22:00N 33°14' E 132°03'5 7.8
2018-Apr-05 21:25N 33°11' E 132°07'312 7.1
2018-Apr-04 01:23N 34°28' E 138°11'12 6.9
2018-Apr-03 23:35N 34°30' E 138°25'1 7.1
2018-Apr-03 23:30N 34°30' E 138°26'4 7.6
2018-Apr-03 22:54N 34°31' E 138°32'16 7.0
2018-Apr-03 20:36N 34°32' E 138°51'1 6.1
2018-Apr-03 20:30N 34°32' E 138°52'5 6.5
2018-Apr-03 19:49N 34°33' E 138°57'5 6.6
2018-Apr-03 19:07N 34°35' E 139°02'3 6.9
2018-Apr-03 18:46N 34°37' E 139°03'2 7.0
2018-Apr-03 18:30N 34°39' E 139°05'26 5.6
2018-Apr-03 13:46N 34°56' E 139°29'1 5.5
2018-Apr-03 13:29N 34°57' E 139°31'3 5.9
2018-Apr-03 13:00N 34°59' E 139°33'3 6.8
2018-Apr-03 12:30N 35°02' E 139°36'4 7.2
2018-Apr-03 12:01N 35°04' E 139°39'4 7.8
2018-Apr-03 11:30N 35°07' E 139°42'4 7.7
2018-Apr-03 11:00N 35°10' E 139°45'4 7.9
2018-Apr-03 10:30N 35°14' E 139°46'4 7.9
2018-Apr-03 09:59N 35°18' E 139°44'4 7.9
2018-Apr-03 09:30N 35°21' E 139°43'4 7.6
2018-Apr-03 09:00N 35°25' E 139°44'4 7.1
2018-Apr-03 08:31N 35°24' E 139°48'4 8.5
2018-Apr-03 08:00N 35°22' E 139°52'1 1.6
2018-Apr-03 07:30N 35°22' E 139°53'0 0.0
2018-Apr-03 06:59N 35°22' E 139°53'0 0.0
2018-Apr-03 06:20N 35°22' E 139°53'0 0.0
2018-Apr-03 05:59N 35°22' E 139°53'0 0.0
2018-Apr-03 05:16N 35°22' E 139°53'0 0.0
2018-Apr-03 04:56N 35°22' E 139°53'0 0.0
2018-Apr-03 04:25N 35°22' E 139°53'0 0.0
2018-Apr-03 03:49N 35°22' E 139°53'0 0.0
2018-Apr-03 03:23N 35°22' E 139°53'0 0.0
2018-Apr-03 02:59N 35°22' E 139°53'0 0.0
2018-Apr-03 02:25N 35°22' E 139°53'0 0.0
2018-Apr-03 01:58N 35°22' E 139°53'0 0.0
2018-Apr-03 01:26N 35°22' E 139°53'0 0.0
2018-Apr-03 00:58N 35°22' E 139°53'0 0.0
2018-Apr-03 00:28N 35°22' E 139°53'0 0.0
2018-Apr-02 23:58N 35°22' E 139°53'0 0.0
2018-Apr-02 23:22N 35°22' E 139°53'0 0.0
2018-Apr-02 22:56N 35°22' E 139°53'0 0.0
2018-Apr-02 22:29N 35°22' E 139°53'0 0.0
2018-Apr-02 21:53N 35°22' E 139°53'0 0.0
2018-Apr-02 21:29N 35°22' E 139°53'0 0.0
2018-Apr-02 20:59N 35°22' E 139°53'0 0.0
2018-Apr-02 20:28N 35°22' E 139°53'0 0.0
2018-Apr-02 19:58N 35°22' E 139°53'0 0.0
2018-Apr-02 19:28N 35°22' E 139°53'0 0.0
2018-Apr-02 18:59N 35°22' E 139°53'0 0.0
2018-Apr-02 18:22N 35°22' E 139°53'0 0.0
2018-Apr-02 17:55N 35°22' E 139°53'0 0.0
2018-Apr-02 17:26N 35°22' E 139°53'0 0.0
2018-Apr-02 16:56N 35°22' E 139°53'0 0.0
2018-Apr-02 16:29N 35°22' E 139°53'0 0.0
2018-Apr-02 15:55N 35°22' E 139°53'0 0.0
2018-Apr-02 15:26N 35°22' E 139°53'  

Dump ship's entire track history